Flight Number: EUR1131 Duration: 1:10
Departure: Gatwick Airport (EGKK) at 07:50 Distance: 370 Nm
Arrival: Basel-Mulhouse (LFSB) at 09:00 Equipment: A321

Weather Information
London / Gatwick Airport, United Kingdom (EGKK) 51-09N 000-11W 0M Nov 19, 2018 - 04:50 PM EST / 2018.11.19 2150 UTC
Wind: from the NNE (030 degrees) at 10 MPH (9 KT) (direction variable):0
Visibility: greater than 7 mile(s):0
Sky conditions: mostly clear Temperature: 39 F (4 C) Dew Point: 37 F (3 C) Relative Humidity: 93% Pressure (altimeter): 29.94 in. Hg (1014 hPa)
ob: EGKK 192150Z 03009KT 360V070 9999 FEW037 04/03 Q1014 cycle: 22
Sunrise: 07:29 Sunset: 16:03 (UTC)

Bale-Mulhouse, France (LFSB) 47-36N 007-31E 271M Nov 19, 2018 - 05:00 PM EST / 2018.11.19 2200 UTC
Wind: from the NNW (340 degrees) at 5 MPH (4 KT):0
Visibility: 3 mile(s):0
Sky conditions: overcast Temperature: 33 F (1 C)
Windchill: 28 F (-2 C):1 Dew Point: 32 F (0 C) Relative Humidity: 93% Pressure (altimeter): 29.68 in. Hg (1005 hPa)
ob: LFSB 192200Z 34004KT 6000 FEW008 OVC030 01/M00 Q1005 TEMPO 3000 BR OVC010 cycle: 22
Sunrise: 06:45 Sunset: 15:45 (UTC)

TAF:2018/11/19 21:34 TAF AMD LFSB 192127Z 1921/2018 VRB02KT 6000 BKN025 TEMPO 1921/2010 3000 BR OVC010 PROB40 TEMPO 2000/2010 OVC003 BECMG 2010/2012 CAVOK

Previous Pireps for this route
Date Aircraft Flight time Fuel used Landing rate On time
2012-11-13B73701.3013217-102Yes
2012-11-21A32101.207933-388No
2013-01-06B73701.236734-271Yes
2013-01-14B73701.277657-204Yes
2013-02-03B73701.207604-226No
2013-06-09B73701.046400-368No
2013-07-10B73701.188800-145No
2013-07-28B73701.3112913-567No
2013-10-09A3211.16100500No
2013-10-15B7371.1575000No
2014-02-10B73701.4411685-131No
2014-05-14A32101.228153-291Yes
2014-08-14B73701.208225-175No
2014-11-17B73701.237853-96No
2015-03-10A32101.19-1039-238Yes
2015-04-06B73702.0213553-241No
2015-04-22CRJ7001.0438770Charter
2015-05-25A32101.439503-129Yes
2015-05-26A32101.369336-219Yes
2015-07-20A32101.287930-134Yes
2016-02-28CRJ70001.116247-175Charter
2016-07-11A3211.158127-699No
(pireps marked green are flown by you)

Route map